sensor_id;sensor_type;location;lat;lon;timestamp;pressure;altitude;pressure_sealevel;temperature;humidity
52469;BME280;38381;53.688;10.776;2023-04-21T00:03:39;101851.69;;;7.03;81.23
52469;BME280;38381;53.688;10.776;2023-04-21T00:08:40;101850.75;;;7.01;81.91
52469;BME280;38381;53.688;10.776;2023-04-21T00:13:41;101848.72;;;6.94;82.24
52469;BME280;38381;53.688;10.776;2023-04-21T00:18:41;101847.78;;;6.92;82.21
52469;BME280;38381;53.688;10.776;2023-04-21T00:23:42;101848.66;;;6.93;81.67
52469;BME280;38381;53.688;10.776;2023-04-21T00:28:42;101840.69;;;6.87;82.00
52469;BME280;38381;53.688;10.776;2023-04-21T00:33:43;101845.66;;;6.82;82.17
52469;BME280;38381;53.688;10.776;2023-04-21T00:38:43;101837.06;;;6.81;81.97
52469;BME280;38381;53.688;10.776;2023-04-21T00:44:06;101841.91;;;6.74;82.56
52469;BME280;38381;53.688;10.776;2023-04-21T00:49:06;101842.78;;;6.74;82.91
52469;BME280;38381;53.688;10.776;2023-04-21T00:54:08;101829.66;;;6.68;82.75
52469;BME280;38381;53.688;10.776;2023-04-21T00:59:10;101842.44;;;6.65;82.71
52469;BME280;38381;53.688;10.776;2023-04-21T01:04:10;101831.19;;;6.63;83.14
52469;BME280;38381;53.688;10.776;2023-04-21T01:09:10;101831.25;;;6.64;82.69
52469;BME280;38381;53.688;10.776;2023-04-21T01:14:11;101824.06;;;6.57;82.54
52469;BME280;38381;53.688;10.776;2023-04-21T01:19:12;101830.88;;;6.55;82.71
52469;BME280;38381;53.688;10.776;2023-04-21T01:24:12;101821.31;;;6.53;83.28
52469;BME280;38381;53.688;10.776;2023-04-21T01:29:12;101824.84;;;6.55;83.31
52469;BME280;38381;53.688;10.776;2023-04-21T01:34:13;101822.03;;;6.49;83.10
52469;BME280;38381;53.688;10.776;2023-04-21T01:39:13;101820.22;;;6.46;83.02
52469;BME280;38381;53.688;10.776;2023-04-21T01:44:14;101821.06;;;6.47;83.38
52469;BME280;38381;53.688;10.776;2023-04-21T01:49:14;101815.69;;;6.40;84.15
52469;BME280;38381;53.688;10.776;2023-04-21T01:54:15;101815.78;;;6.43;83.42
52469;BME280;38381;53.688;10.776;2023-04-21T01:59:15;101814.03;;;6.42;83.66
52469;BME280;38381;53.688;10.776;2023-04-21T02:04:16;101817.13;;;6.34;83.65
52469;BME280;38381;53.688;10.776;2023-04-21T02:09:16;101810.34;;;6.36;83.67
52469;BME280;38381;53.688;10.776;2023-04-21T02:14:17;101802.56;;;6.34;83.25
52469;BME280;38381;53.688;10.776;2023-04-21T02:19:17;101809.19;;;6.29;83.59
52469;BME280;38381;53.688;10.776;2023-04-21T02:24:18;101803.06;;;6.26;84.12
52469;BME280;38381;53.688;10.776;2023-04-21T02:29:18;101793.38;;;6.20;84.25
52469;BME280;38381;53.688;10.776;2023-04-21T02:34:19;101795.97;;;6.20;84.35
52469;BME280;38381;53.688;10.776;2023-04-21T02:39:20;101785.59;;;6.18;84.14
52469;BME280;38381;53.688;10.776;2023-04-21T02:44:20;101789.63;;;6.12;84.82
52469;BME280;38381;53.688;10.776;2023-04-21T02:49:21;101789.69;;;6.13;85.63
52469;BME280;38381;53.688;10.776;2023-04-21T02:54:21;101782.41;;;6.03;85.89
52469;BME280;38381;53.688;10.776;2023-04-21T02:59:21;101789.88;;;5.97;85.56
52469;BME280;38381;53.688;10.776;2023-04-21T03:04:22;101788.28;;;6.00;85.66
52469;BME280;38381;53.688;10.776;2023-04-21T03:09:24;101779.69;;;6.00;85.68
52469;BME280;38381;53.688;10.776;2023-04-21T03:14:25;101778.38;;;5.90;85.95
52469;BME280;38381;53.688;10.776;2023-04-21T03:19:25;101783.22;;;5.82;85.55
52469;BME280;38381;53.688;10.776;2023-04-21T03:24:26;101778.88;;;5.81;85.35
52469;BME280;38381;53.688;10.776;2023-04-21T03:29:27;101780.66;;;5.82;85.18
52469;BME280;38381;53.688;10.776;2023-04-21T03:34:27;101778.75;;;5.78;85.60
52469;BME280;38381;53.688;10.776;2023-04-21T03:39:27;101773.34;;;5.72;85.47
52469;BME280;38381;53.688;10.776;2023-04-21T03:44:28;101779.09;;;5.67;85.54
52469;BME280;38381;53.688;10.776;2023-04-21T03:49:28;101771.13;;;5.60;85.86
52469;BME280;38381;53.688;10.776;2023-04-21T03:54:29;101769.63;;;5.65;85.79
52469;BME280;38381;53.688;10.776;2023-04-21T03:59:29;101773.09;;;5.66;85.52
52469;BME280;38381;53.688;10.776;2023-04-21T04:04:30;101770.53;;;5.66;86.06
52469;BME280;38381;53.688;10.776;2023-04-21T04:09:30;101767.94;;;5.66;85.92
52469;BME280;38381;53.688;10.776;2023-04-21T04:14:31;101766.34;;;5.70;86.00
52469;BME280;38381;53.688;10.776;2023-04-21T04:19:31;101765.47;;;5.69;85.20
52469;BME280;38381;53.688;10.776;2023-04-21T04:24:32;101757.06;;;5.73;86.11
52469;BME280;38381;53.688;10.776;2023-04-21T04:29:32;101764.88;;;5.75;86.26
52469;BME280;38381;53.688;10.776;2023-04-21T04:34:33;101764.03;;;5.76;85.34
52469;BME280;38381;53.688;10.776;2023-04-21T04:39:36;101757.34;;;5.79;85.31
52469;BME280;38381;53.688;10.776;2023-04-21T04:44:37;101757.47;;;5.82;85.43
52469;BME280;38381;53.688;10.776;2023-04-21T04:49:37;101748.81;;;5.80;85.68
52469;BME280;38381;53.688;10.776;2023-04-21T04:54:37;101756.84;;;5.88;85.37
52469;BME280;38381;53.688;10.776;2023-04-21T04:59:38;101756.91;;;5.90;85.17
52469;BME280;38381;53.688;10.776;2023-04-21T05:04:38;101752.03;;;5.96;85.08
52469;BME280;38381;53.688;10.776;2023-04-21T05:09:39;101756.66;;;6.03;84.86
52469;BME280;38381;53.688;10.776;2023-04-21T05:14:39;101753.56;;;6.12;85.07
52469;BME280;38381;53.688;10.776;2023-04-21T05:19:41;101757.38;;;6.21;85.14
52469;BME280;38381;53.688;10.776;2023-04-21T05:24:41;101760.31;;;6.31;84.49
52469;BME280;38381;53.688;10.776;2023-04-21T05:29:43;101760.00;;;6.44;83.98
52469;BME280;38381;53.688;10.776;2023-04-21T05:34:43;101766.38;;;6.54;84.36
52469;BME280;38381;53.688;10.776;2023-04-21T05:39:44;101766.97;;;6.69;83.76
52469;BME280;38381;53.688;10.776;2023-04-21T05:44:44;101763.94;;;6.79;83.69
52469;BME280;38381;53.688;10.776;2023-04-21T05:49:44;101760.19;;;6.94;83.44
52469;BME280;38381;53.688;10.776;2023-04-21T05:54:49;101771.81;;;7.07;82.98
52469;BME280;38381;53.688;10.776;2023-04-21T05:59:49;101767.72;;;7.12;82.77
52469;BME280;38381;53.688;10.776;2023-04-21T06:04:50;101766.75;;;7.32;82.02
52469;BME280;38381;53.688;10.776;2023-04-21T06:09:51;101762.09;;;7.48;82.14
52469;BME280;38381;53.688;10.776;2023-04-21T06:14:51;101761.72;;;7.61;81.82
52469;BME280;38381;53.688;10.776;2023-04-21T06:19:56;101761.53;;;7.80;81.65
52469;BME280;38381;53.688;10.776;2023-04-21T06:24:57;101762.03;;;7.96;81.10
52469;BME280;38381;53.688;10.776;2023-04-21T06:29:57;101746.34;;;8.17;80.53
52469;BME280;38381;53.688;10.776;2023-04-21T06:34:57;101741.84;;;8.38;79.76
52469;BME280;38381;53.688;10.776;2023-04-21T06:39:58;101728.03;;;8.63;78.15
52469;BME280;38381;53.688;10.776;2023-04-21T06:44:58;101722.59;;;8.84;77.49
52469;BME280;38381;53.688;10.776;2023-04-21T06:49:58;101734.50;;;9.10;75.76
52469;BME280;38381;53.688;10.776;2023-04-21T06:54:59;101728.34;;;9.36;74.33
52469;BME280;38381;53.688;10.776;2023-04-21T06:59:59;101725.75;;;9.70;72.02
52469;BME280;38381;53.688;10.776;2023-04-21T07:05:00;101727.88;;;9.84;71.95
52469;BME280;38381;53.688;10.776;2023-04-21T07:10:00;101724.06;;;10.06;70.92
52469;BME280;38381;53.688;10.776;2023-04-21T07:15:01;101723.63;;;10.24;70.15
52469;BME280;38381;53.688;10.776;2023-04-21T07:20:01;101724.38;;;10.55;67.84
52469;BME280;38381;53.688;10.776;2023-04-21T07:25:03;101727.31;;;10.71;68.30
52469;BME280;38381;53.688;10.776;2023-04-21T07:30:06;101727.63;;;10.86;67.20
52469;BME280;38381;53.688;10.776;2023-04-21T07:35:07;101720.38;;;11.12;66.40
52469;BME280;38381;53.688;10.776;2023-04-21T07:40:08;101717.53;;;11.45;66.30
52469;BME280;38381;53.688;10.776;2023-04-21T07:45:08;101715.31;;;11.67;65.30
52469;BME280;38381;53.688;10.776;2023-04-21T07:50:09;101712.38;;;11.96;63.40
52469;BME280;38381;53.688;10.776;2023-04-21T07:55:10;101713.38;;;12.07;64.01
52469;BME280;38381;53.688;10.776;2023-04-21T08:00:10;101713.66;;;12.25;62.71
52469;BME280;38381;53.688;10.776;2023-04-21T08:05:11;101706.09;;;12.42;62.78
52469;BME280;38381;53.688;10.776;2023-04-21T08:10:12;101701.97;;;12.55;62.41
52469;BME280;38381;53.688;10.776;2023-04-21T08:15:12;101697.91;;;12.79;61.42
52469;BME280;38381;53.688;10.776;2023-04-21T08:20:12;101694.66;;;12.97;61.30
52469;BME280;38381;53.688;10.776;2023-04-21T08:25:13;101694.72;;;13.03;60.77
52469;BME280;38381;53.688;10.776;2023-04-21T08:30:13;101681.19;;;13.33;60.79
52469;BME280;38381;53.688;10.776;2023-04-21T08:35:14;101677.88;;;13.50;61.44
52469;BME280;38381;53.688;10.776;2023-04-21T08:40:18;101674.56;;;13.69;58.81
52469;BME280;38381;53.688;10.776;2023-04-21T08:45:18;101670.41;;;13.94;59.93
52469;BME280;38381;53.688;10.776;2023-04-21T08:50:19;101662.78;;;14.26;59.32
52469;BME280;38381;53.688;10.776;2023-04-21T08:55:27;101667.28;;;14.55;59.49
52469;BME280;38381;53.688;10.776;2023-04-21T09:00:27;101657.88;;;14.93;59.08
52469;BME280;38381;53.688;10.776;2023-04-21T09:05:30;101664.84;;;15.03;55.84
52469;BME280;38381;53.688;10.776;2023-04-21T09:10:30;101661.41;;;15.04;55.68
52469;BME280;38381;53.688;10.776;2023-04-21T09:15:37;101667.53;;;15.29;57.21
52469;BME280;38381;53.688;10.776;2023-04-21T09:20:38;101670.16;;;15.24;54.38
52469;BME280;38381;53.688;10.776;2023-04-21T09:25:44;101668.44;;;15.46;55.36
52469;BME280;38381;53.688;10.776;2023-04-21T09:30:44;101661.47;;;15.75;55.10
52469;BME280;38381;53.688;10.776;2023-04-21T09:35:45;101656.25;;;15.98;54.36
52469;BME280;38381;53.688;10.776;2023-04-21T09:40:57;101644.00;;;16.11;52.25
52469;BME280;38381;53.688;10.776;2023-04-21T09:45:59;101645.72;;;16.21;53.08
52469;BME280;38381;53.688;10.776;2023-04-21T09:51:01;101650.94;;;16.24;53.64
52469;BME280;38381;53.688;10.776;2023-04-21T09:56:03;101644.81;;;16.39;51.66
52469;BME280;38381;53.688;10.776;2023-04-21T10:01:04;101642.13;;;16.48;50.88
52469;BME280;38381;53.688;10.776;2023-04-21T10:06:05;101636.84;;;16.63;51.80
52469;BME280;38381;53.688;10.776;2023-04-21T10:11:07;101629.00;;;16.63;51.60
52469;BME280;38381;53.688;10.776;2023-04-21T10:16:08;101616.69;;;16.82;50.96
52469;BME280;38381;53.688;10.776;2023-04-21T10:21:19;101613.09;;;16.97;49.73
52469;BME280;38381;53.688;10.776;2023-04-21T10:26:22;101605.06;;;17.22;50.11
52469;BME280;38381;53.688;10.776;2023-04-21T10:31:33;101599.66;;;17.40;48.95
52469;BME280;38381;53.688;10.776;2023-04-21T10:36:47;101593.41;;;17.60;48.29
52469;BME280;38381;53.688;10.776;2023-04-21T10:41:48;101587.25;;;17.62;48.77
52469;BME280;38381;53.688;10.776;2023-04-21T10:46:50;101575.84;;;17.68;46.85
52469;BME280;38381;53.688;10.776;2023-04-21T10:57:05;101567.75;;;17.89;46.80
52469;BME280;38381;53.688;10.776;2023-04-21T11:02:12;101568.47;;;18.04;45.64
52469;BME280;38381;53.688;10.776;2023-04-21T11:07:13;101564.91;;;18.09;45.47
52469;BME280;38381;53.688;10.776;2023-04-21T11:12:16;101552.56;;;18.16;45.79
52469;BME280;38381;53.688;10.776;2023-04-21T11:17:20;101544.66;;;18.19;45.69
52469;BME280;38381;53.688;10.776;2023-04-21T11:22:23;101543.44;;;18.45;45.66
52469;BME280;38381;53.688;10.776;2023-04-21T11:27:28;101532.94;;;18.45;45.74
52469;BME280;38381;53.688;10.776;2023-04-21T11:32:29;101531.78;;;18.64;45.77
52469;BME280;38381;53.688;10.776;2023-04-21T11:37:29;101526.31;;;18.80;43.49
52469;BME280;38381;53.688;10.776;2023-04-21T11:42:31;101518.56;;;18.70;43.44
52469;BME280;38381;53.688;10.776;2023-04-21T11:47:31;101514.19;;;18.69;42.20
52469;BME280;38381;53.688;10.776;2023-04-21T11:52:33;101506.81;;;18.95;44.19
52469;BME280;38381;53.688;10.776;2023-04-21T11:57:39;101509.69;;;18.81;43.35
52469;BME280;38381;53.688;10.776;2023-04-21T12:02:41;101504.06;;;19.02;43.72
52469;BME280;38381;53.688;10.776;2023-04-21T12:07:44;101492.78;;;18.97;42.95
52469;BME280;38381;53.688;10.776;2023-04-21T12:12:45;101483.00;;;19.04;41.75
52469;BME280;38381;53.688;10.776;2023-04-21T12:17:50;101484.78;;;19.02;41.75
52469;BME280;38381;53.688;10.776;2023-04-21T12:22:51;101483.88;;;19.03;42.04
52469;BME280;38381;53.688;10.776;2023-04-21T12:27:56;101472.59;;;18.98;42.04
52469;BME280;38381;53.688;10.776;2023-04-21T12:32:57;101455.06;;;18.97;41.97
52469;BME280;38381;53.688;10.776;2023-04-21T12:37:57;101454.19;;;18.98;41.59
52469;BME280;38381;53.688;10.776;2023-04-21T12:42:58;101458.16;;;19.22;41.60
52469;BME280;38381;53.688;10.776;2023-04-21T12:47:58;101448.53;;;19.19;42.34
52469;BME280;38381;53.688;10.776;2023-04-21T12:52:59;101439.75;;;19.22;41.24
52469;BME280;38381;53.688;10.776;2023-04-21T12:57:59;101448.63;;;19.16;40.70
52469;BME280;38381;53.688;10.776;2023-04-21T13:03:00;101427.09;;;19.42;41.69
52469;BME280;38381;53.688;10.776;2023-04-21T13:08:01;101438.03;;;19.19;38.49
52469;BME280;38381;53.688;10.776;2023-04-21T13:13:01;101426.09;;;19.01;41.04
52469;BME280;38381;53.688;10.776;2023-04-21T13:18:01;101422.44;;;19.08;38.32
52469;BME280;38381;53.688;10.776;2023-04-21T13:23:02;101419.63;;;19.19;38.80
52469;BME280;38381;53.688;10.776;2023-04-21T13:28:02;101406.53;;;19.18;37.66
52469;BME280;38381;53.688;10.776;2023-04-21T13:33:03;101402.69;;;19.34;38.81
52469;BME280;38381;53.688;10.776;2023-04-21T13:38:04;101394.00;;;19.30;38.93
52469;BME280;38381;53.688;10.776;2023-04-21T13:43:04;101392.06;;;19.39;37.35
52469;BME280;38381;53.688;10.776;2023-04-21T13:48:05;101382.56;;;19.32;37.74
52469;BME280;38381;53.688;10.776;2023-04-21T13:53:05;101382.38;;;19.41;39.30
52469;BME280;38381;53.688;10.776;2023-04-21T13:58:06;101373.41;;;19.51;37.40
52469;BME280;38381;53.688;10.776;2023-04-21T14:03:08;101365.63;;;19.46;36.54
52469;BME280;38381;53.688;10.776;2023-04-21T14:08:08;101353.38;;;19.44;38.75
52469;BME280;38381;53.688;10.776;2023-04-21T14:13:09;101341.50;;;19.26;38.44
52469;BME280;38381;53.688;10.776;2023-04-21T14:18:09;101341.16;;;19.41;38.41
52469;BME280;38381;53.688;10.776;2023-04-21T14:23:09;101332.50;;;19.36;37.98
52469;BME280;38381;53.688;10.776;2023-04-21T14:28:10;101326.38;;;19.36;37.56
52469;BME280;38381;53.688;10.776;2023-04-21T14:33:10;101322.03;;;19.35;38.66
52469;BME280;38381;53.688;10.776;2023-04-21T14:38:11;101316.03;;;19.28;38.25
52469;BME280;38381;53.688;10.776;2023-04-21T14:43:11;101316.91;;;19.27;37.73
52469;BME280;38381;53.688;10.776;2023-04-21T14:48:12;101308.75;;;19.41;38.31
52469;BME280;38381;53.688;10.776;2023-04-21T14:53:13;101298.31;;;19.36;37.88
52469;BME280;38381;53.688;10.776;2023-04-21T14:58:13;101295.75;;;19.33;39.30
52469;BME280;38381;53.688;10.776;2023-04-21T15:03:14;101281.97;;;19.22;38.27
52469;BME280;38381;53.688;10.776;2023-04-21T15:08:14;101273.25;;;19.20;38.65
52469;BME280;38381;53.688;10.776;2023-04-21T15:13:17;101268.97;;;19.16;38.58
52469;BME280;38381;53.688;10.776;2023-04-21T15:18:17;101253.22;;;19.13;39.76
52469;BME280;38381;53.688;10.776;2023-04-21T15:23:18;101250.34;;;19.23;40.35
52469;BME280;38381;53.688;10.776;2023-04-21T15:28:19;101252.91;;;19.28;40.42
52469;BME280;38381;53.688;10.776;2023-04-21T15:33:19;101243.81;;;19.02;40.04
52469;BME280;38381;53.688;10.776;2023-04-21T15:38:20;101248.25;;;18.99;39.99
52469;BME280;38381;53.688;10.776;2023-04-21T15:43:20;101234.31;;;18.95;40.85
52469;BME280;38381;53.688;10.776;2023-04-21T15:48:20;101239.63;;;18.92;40.54
52469;BME280;38381;53.688;10.776;2023-04-21T15:53:21;101236.41;;;18.76;40.70
52469;BME280;38381;53.688;10.776;2023-04-21T15:58:21;101224.28;;;18.70;40.99
52469;BME280;38381;53.688;10.776;2023-04-21T16:03:22;101221.78;;;18.64;41.36
52469;BME280;38381;53.688;10.776;2023-04-21T16:08:22;101221.97;;;18.54;40.71
52469;BME280;38381;53.688;10.776;2023-04-21T16:13:23;101217.38;;;18.65;41.54
52469;BME280;38381;53.688;10.776;2023-04-21T16:18:23;101215.88;;;18.52;42.52
52469;BME280;38381;53.688;10.776;2023-04-21T16:23:25;101212.28;;;18.57;42.37
52469;BME280;38381;53.688;10.776;2023-04-21T16:28:26;101203.91;;;18.37;42.70
52469;BME280;38381;53.688;10.776;2023-04-21T16:33:26;101203.13;;;18.32;42.25
52469;BME280;38381;53.688;10.776;2023-04-21T16:38:26;101198.28;;;18.10;43.08
52469;BME280;38381;53.688;10.776;2023-04-21T16:43:27;101191.19;;;18.15;42.93
52469;BME280;38381;53.688;10.776;2023-04-21T16:48:27;101194.19;;;17.94;43.98
52469;BME280;38381;53.688;10.776;2023-04-21T16:53:28;101200.44;;;17.86;44.61
52469;BME280;38381;53.688;10.776;2023-04-21T16:58:28;101193.63;;;17.73;44.92
52469;BME280;38381;53.688;10.776;2023-04-21T17:03:29;101186.75;;;17.66;45.47
52469;BME280;38381;53.688;10.776;2023-04-21T17:08:29;101186.03;;;17.55;45.67
52469;BME280;38381;53.688;10.776;2023-04-21T17:13:30;101183.69;;;17.36;45.72
52469;BME280;38381;53.688;10.776;2023-04-21T17:18:30;101181.22;;;17.27;45.99
52469;BME280;38381;53.688;10.776;2023-04-21T17:23:31;101183.09;;;17.19;46.38
52469;BME280;38381;53.688;10.776;2023-04-21T17:28:31;101186.06;;;16.93;47.11
52469;BME280;38381;53.688;10.776;2023-04-21T17:33:32;101182.66;;;16.84;46.76
52469;BME280;38381;53.688;10.776;2023-04-21T17:38:33;101177.69;;;16.61;46.96
52469;BME280;38381;53.688;10.776;2023-04-21T17:43:33;101175.06;;;16.61;47.33
52469;BME280;38381;53.688;10.776;2023-04-21T17:48:34;101177.97;;;16.37;47.64
52469;BME280;38381;53.688;10.776;2023-04-21T17:53:34;101179.88;;;16.19;48.11
52469;BME280;38381;53.688;10.776;2023-04-21T17:58:35;101184.38;;;16.05;48.52
52469;BME280;38381;53.688;10.776;2023-04-21T18:03:35;101187.91;;;15.99;48.45
52469;BME280;38381;53.688;10.776;2023-04-21T18:08:36;101188.81;;;15.97;48.35
52469;BME280;38381;53.688;10.776;2023-04-21T18:13:37;101188.97;;;15.78;48.20
52469;BME280;38381;53.688;10.776;2023-04-21T18:18:37;101193.50;;;15.52;48.69
52469;BME280;38381;53.688;10.776;2023-04-21T18:23:38;101193.50;;;15.52;48.69
52469;BME280;38381;53.688;10.776;2023-04-21T18:28:38;101200.56;;;15.39;49.53
52469;BME280;38381;53.688;10.776;2023-04-21T18:33:39;101192.81;;;15.28;49.21
52469;BME280;38381;53.688;10.776;2023-04-21T18:38:39;101205.94;;;15.16;48.99
52469;BME280;38381;53.688;10.776;2023-04-21T18:43:40;101202.53;;;15.01;48.77
52469;BME280;38381;53.688;10.776;2023-04-21T18:48:40;101197.41;;;14.75;49.16
52469;BME280;38381;53.688;10.776;2023-04-21T18:53:40;101196.56;;;14.68;49.70
52469;BME280;38381;53.688;10.776;2023-04-21T18:58:42;101194.84;;;14.49;50.35
52469;BME280;38381;53.688;10.776;2023-04-21T19:03:43;101200.94;;;14.39;49.65
52469;BME280;38381;53.688;10.776;2023-04-21T19:08:43;101198.38;;;14.14;49.76
52469;BME280;38381;53.688;10.776;2023-04-21T19:13:44;101201.91;;;13.95;49.20
52469;BME280;38381;53.688;10.776;2023-04-21T19:18:47;101202.75;;;13.91;50.03
52469;BME280;38381;53.688;10.776;2023-04-21T19:23:47;101201.00;;;13.66;50.09
52469;BME280;38381;53.688;10.776;2023-04-21T19:28:48;101203.59;;;13.63;50.43
52469;BME280;38381;53.688;10.776;2023-04-21T19:33:48;101200.13;;;13.41;50.94
52469;BME280;38381;53.688;10.776;2023-04-21T19:38:49;101203.53;;;13.25;51.63
52469;BME280;38381;53.688;10.776;2023-04-21T19:43:50;101196.53;;;13.08;51.59
52469;BME280;38381;53.688;10.776;2023-04-21T19:48:50;101198.25;;;13.00;52.23
52469;BME280;38381;53.688;10.776;2023-04-21T19:53:51;101203.44;;;12.97;52.38
52469;BME280;38381;53.688;10.776;2023-04-21T19:58:51;101201.63;;;12.78;53.03
52469;BME280;38381;53.688;10.776;2023-04-21T20:03:54;101195.53;;;12.70;52.88
52469;BME280;38381;53.688;10.776;2023-04-21T20:08:55;101188.50;;;12.56;52.80
52469;BME280;38381;53.688;10.776;2023-04-21T20:13:55;101182.34;;;12.40;53.00
52469;BME280;38381;53.688;10.776;2023-04-21T20:18:55;101184.03;;;12.29;53.27
52469;BME280;38381;53.688;10.776;2023-04-21T20:23:56;101188.31;;;12.24;53.18
52469;BME280;38381;53.688;10.776;2023-04-21T20:28:56;101180.44;;;12.10;53.47
52469;BME280;38381;53.688;10.776;2023-04-21T20:33:57;101183.78;;;11.95;54.03
52469;BME280;38381;53.688;10.776;2023-04-21T20:38:57;101194.03;;;11.80;53.85
52469;BME280;38381;53.688;10.776;2023-04-21T20:43:59;101194.00;;;11.77;54.20
52469;BME280;38381;53.688;10.776;2023-04-21T20:49:00;101190.41;;;11.62;54.63
52469;BME280;38381;53.688;10.776;2023-04-21T20:54:00;101189.34;;;11.40;54.70
52469;BME280;38381;53.688;10.776;2023-04-21T20:59:01;101192.84;;;11.45;54.60
52469;BME280;38381;53.688;10.776;2023-04-21T21:04:01;101203.09;;;11.33;54.83
52469;BME280;38381;53.688;10.776;2023-04-21T21:09:02;101199.50;;;11.19;55.41
52469;BME280;38381;53.688;10.776;2023-04-21T21:14:03;101194.22;;;11.11;55.27
52469;BME280;38381;53.688;10.776;2023-04-21T21:19:03;101196.69;;;11.00;55.43
52469;BME280;38381;53.688;10.776;2023-04-21T21:24:04;101191.44;;;10.94;55.91
52469;BME280;38381;53.688;10.776;2023-04-21T21:29:05;101187.84;;;10.84;55.97
52469;BME280;38381;53.688;10.776;2023-04-21T21:34:06;101185.19;;;10.77;55.30
52469;BME280;38381;53.688;10.776;2023-04-21T21:39:06;101185.84;;;10.63;55.68
52469;BME280;38381;53.688;10.776;2023-04-21T21:44:07;101181.47;;;10.59;55.79
52469;BME280;38381;53.688;10.776;2023-04-21T21:49:07;101178.78;;;10.52;56.19
52469;BME280;38381;53.688;10.776;2023-04-21T21:54:08;101172.66;;;10.45;56.06
52469;BME280;38381;53.688;10.776;2023-04-21T21:59:08;101182.09;;;10.40;56.34
52469;BME280;38381;53.688;10.776;2023-04-21T22:04:08;101177.53;;;10.26;57.28
52469;BME280;38381;53.688;10.776;2023-04-21T22:09:09;101183.59;;;10.25;56.87
52469;BME280;38381;53.688;10.776;2023-04-21T22:14:10;101179.97;;;10.14;57.70
52469;BME280;38381;53.688;10.776;2023-04-21T22:19:10;101184.03;;;9.98;57.63
52469;BME280;38381;53.688;10.776;2023-04-21T22:24:11;101180.47;;;9.92;57.83
52469;BME280;38381;53.688;10.776;2023-04-21T22:29:12;101168.28;;;9.84;57.81
52469;BME280;38381;53.688;10.776;2023-04-21T22:34:13;101173.16;;;9.66;58.27
52469;BME280;38381;53.688;10.776;2023-04-21T22:39:15;101169.78;;;9.70;58.33
52469;BME280;38381;53.688;10.776;2023-04-21T22:44:16;101167.09;;;9.65;57.78
52469;BME280;38381;53.688;10.776;2023-04-21T22:49:16;101168.00;;;9.66;57.64
52469;BME280;38381;53.688;10.776;2023-04-21T22:54:17;101166.03;;;9.53;58.21
52469;BME280;38381;53.688;10.776;2023-04-21T22:59:17;101164.19;;;9.45;58.21
52469;BME280;38381;53.688;10.776;2023-04-21T23:04:18;101162.97;;;9.25;58.68
52469;BME280;38381;53.688;10.776;2023-04-21T23:09:18;101161.88;;;9.14;59.12
52469;BME280;38381;53.688;10.776;2023-04-21T23:14:19;101160.06;;;9.10;59.43
52469;BME280;38381;53.688;10.776;2023-04-21T23:19:19;101159.13;;;9.06;59.79
52469;BME280;38381;53.688;10.776;2023-04-21T23:24:20;101151.63;;;9.20;59.32
52469;BME280;38381;53.688;10.776;2023-04-21T23:29:20;101151.41;;;9.07;59.65
52469;BME280;38381;53.688;10.776;2023-04-21T23:34:20;101141.91;;;9.06;59.53
52469;BME280;38381;53.688;10.776;2023-04-21T23:39:21;101144.13;;;8.86;60.18
52469;BME280;38381;53.688;10.776;2023-04-21T23:44:21;101137.06;;;8.79;60.48
52469;BME280;38381;53.688;10.776;2023-04-21T23:49:22;101130.88;;;8.71;60.45
52469;BME280;38381;53.688;10.776;2023-04-21T23:54:22;101130.19;;;8.80;59.95
52469;BME280;38381;53.688;10.776;2023-04-21T23:59:23;101131.88;;;8.79;60.04
